createdAt,value
2018-07-21T00:00:26.229Z,160.10
2018-07-21T00:01:26.272Z,183.70
2018-07-21T00:02:26.366Z,207.60
2018-07-21T00:03:26.353Z,193.60
2018-07-21T00:04:26.405Z,215.60
2018-07-21T00:05:26.452Z,196.50
2018-07-21T00:06:26.508Z,167.00
2018-07-21T00:07:26.517Z,201.40
2018-07-21T00:08:26.593Z,225.80
2018-07-21T00:09:26.622Z,244.10
2018-07-21T00:10:26.676Z,276.40
2018-07-21T00:11:26.745Z,293.40
2018-07-21T00:12:26.767Z,307.90
2018-07-21T00:13:26.847Z,332.80
2018-07-21T00:14:26.901Z,382.90
2018-07-21T00:15:26.937Z,377.30
2018-07-21T00:16:26.991Z,352.90
2018-07-21T00:17:27.025Z,397.90
2018-07-21T00:18:27.057Z,389.60
2018-07-21T00:19:27.104Z,372.70
2018-07-21T00:20:27.148Z,366.40
2018-07-21T00:21:27.208Z,360.10
2018-07-21T00:22:27.262Z,355.30
2018-07-21T00:23:27.325Z,333.60
2018-07-21T00:24:27.327Z,365.80
2018-07-21T00:25:27.385Z,319.70
2018-07-21T00:26:27.423Z,327.50
2018-07-21T00:27:27.486Z,311.80
2018-07-21T00:28:27.521Z,309.20
2018-07-21T00:29:27.573Z,319.20
2018-07-21T00:30:27.639Z,328.60
2018-07-21T00:31:27.687Z,309.00
2018-07-21T00:32:27.714Z,291.70
2018-07-21T00:33:27.762Z,268.50
2018-07-21T00:34:27.814Z,274.20
2018-07-21T00:35:27.852Z,285.00
2018-07-21T00:36:27.910Z,273.40
2018-07-21T00:37:27.950Z,283.70
2018-07-21T00:38:27.982Z,278.50
2018-07-21T00:39:28.048Z,257.40
2018-07-21T00:40:28.096Z,248.80
2018-07-21T00:41:28.131Z,245.30
2018-07-21T00:42:28.172Z,253.00
2018-07-21T00:43:28.242Z,247.80
2018-07-21T00:44:28.283Z,250.90
2018-07-21T00:45:28.329Z,241.10
2018-07-21T00:46:28.381Z,248.20
2018-07-21T00:47:28.408Z,245.00
2018-07-21T00:48:28.443Z,248.20
2018-07-21T00:49:28.514Z,240.40
2018-07-21T00:50:28.570Z,241.40
2018-07-21T00:51:28.600Z,249.40
2018-07-21T00:52:28.650Z,241.90
2018-07-21T00:53:28.689Z,241.30
2018-07-21T00:54:28.727Z,244.00
2018-07-21T00:55:28.778Z,234.30
2018-07-21T00:56:28.851Z,262.20
2018-07-21T00:57:28.870Z,255.30
2018-07-21T00:58:28.945Z,252.40
2018-07-21T00:59:28.972Z,241.70
2018-07-21T01:00:29.004Z,254.80
2018-07-21T01:01:29.059Z,264.30
2018-07-21T01:02:29.117Z,269.10
2018-07-21T01:03:29.151Z,256.90
2018-07-21T01:04:29.189Z,253.40
2018-07-21T01:05:29.248Z,254.60
2018-07-21T01:06:29.282Z,259.80
2018-07-21T01:07:29.358Z,256.10
2018-07-21T01:08:29.355Z,250.40
2018-07-21T01:09:29.408Z,260.00
2018-07-21T01:10:29.495Z,267.90
2018-07-21T01:11:29.549Z,259.40
2018-07-21T01:12:29.567Z,273.10
2018-07-21T01:13:29.635Z,275.00
2018-07-21T01:14:29.652Z,276.00
2018-07-21T01:15:29.722Z,284.40
2018-07-21T01:16:29.736Z,262.60
2018-07-21T01:17:29.811Z,269.10
2018-07-21T01:18:29.835Z,260.60
2018-07-21T01:19:29.889Z,264.20
2018-07-21T01:20:29.945Z,254.80
2018-07-21T01:21:30.188Z,276.20
2018-07-21T01:22:30.017Z,272.00
2018-07-21T01:23:30.063Z,277.40
2018-07-21T01:24:30.149Z,285.20
2018-07-21T01:25:30.182Z,281.20
2018-07-21T01:26:30.234Z,272.70
2018-07-21T01:27:30.260Z,276.00
2018-07-21T01:28:30.292Z,274.00
2018-07-21T01:29:30.367Z,276.80
2018-07-21T01:30:30.421Z,278.40
2018-07-21T01:31:30.453Z,279.20
2018-07-21T01:32:30.488Z,280.50
2018-07-21T01:33:30.524Z,295.90
2018-07-21T01:34:30.602Z,268.70
2018-07-21T01:35:30.633Z,269.90
2018-07-21T01:36:30.675Z,268.30
2018-07-21T01:37:30.737Z,284.50
2018-07-21T01:38:30.747Z,267.40
2018-07-21T01:39:30.833Z,266.40
2018-07-21T01:40:30.872Z,265.10
2018-07-21T01:41:30.905Z,281.40
2018-07-21T01:42:31.417Z,270.60
2018-07-21T01:43:31.006Z,278.90
2018-07-21T01:44:31.049Z,278.70
2018-07-21T01:45:31.088Z,271.70
2018-07-21T01:46:31.141Z,285.70
2018-07-21T01:47:31.202Z,283.00
2018-07-21T01:48:31.244Z,287.10
2018-07-21T01:49:31.268Z,275.30
2018-07-21T01:50:31.306Z,281.30
2018-07-21T01:51:31.384Z,282.50
2018-07-21T01:52:31.405Z,272.10
2018-07-21T01:53:31.465Z,271.10
2018-07-21T01:54:31.524Z,278.40
2018-07-21T01:55:31.535Z,258.90
2018-07-21T01:56:31.576Z,278.20
2018-07-21T01:57:31.652Z,251.70
2018-07-21T01:58:31.680Z,286.90
2018-07-21T01:59:31.720Z,292.30
2018-07-21T02:00:31.791Z,282.20
2018-07-21T02:01:31.836Z,297.10
2018-07-21T02:02:31.894Z,289.10
2018-07-21T02:03:31.913Z,279.70
2018-07-21T02:04:31.980Z,284.80
2018-07-21T02:05:32.082Z,293.80
2018-07-21T02:06:32.084Z,263.20
2018-07-21T02:07:32.104Z,253.50
2018-07-21T02:08:32.159Z,262.60
2018-07-21T02:09:32.181Z,269.90
2018-07-21T02:10:32.216Z,280.80
2018-07-21T02:11:32.286Z,258.00
2018-07-21T02:12:32.377Z,271.90
2018-07-21T02:13:32.366Z,273.40
2018-07-21T02:14:32.411Z,256.30
2018-07-21T02:15:32.468Z,272.10
2018-07-21T02:16:32.512Z,264.80
2018-07-21T02:17:32.570Z,267.10
2018-07-21T02:18:32.612Z,265.70
2018-07-21T02:19:32.666Z,281.80
2018-07-21T02:20:32.708Z,273.00
2018-07-21T02:21:32.755Z,276.30
2018-07-21T02:22:32.825Z,280.80
2018-07-21T02:23:32.838Z,276.80
2018-07-21T02:24:32.969Z,284.10
2018-07-21T02:25:32.954Z,262.10
2018-07-21T02:26:32.974Z,281.80
2018-07-21T02:27:33.034Z,274.60
2018-07-21T02:28:33.073Z,277.00
2018-07-21T02:29:33.108Z,261.10
2018-07-21T02:30:33.144Z,279.80
2018-07-21T02:31:33.215Z,279.40
2018-07-21T02:32:33.272Z,282.60
2018-07-21T02:33:33.301Z,272.40
2018-07-21T02:34:33.359Z,287.10
2018-07-21T02:35:33.394Z,272.70
2018-07-21T02:36:33.461Z,281.00
2018-07-21T02:37:33.514Z,283.80
2018-07-21T02:38:33.543Z,284.00
2018-07-21T02:39:33.576Z,285.20
2018-07-21T02:40:33.617Z,307.30
2018-07-21T02:41:33.681Z,287.30
2018-07-21T02:42:33.700Z,278.70
2018-07-21T02:43:33.765Z,285.10
2018-07-21T02:44:33.800Z,275.60
2018-07-21T02:45:33.896Z,274.70
2018-07-21T02:46:33.890Z,281.40
2018-07-21T02:47:33.931Z,295.00
2018-07-21T02:48:33.979Z,288.90
2018-07-21T02:49:34.027Z,280.10
2018-07-21T02:50:34.077Z,303.20
2018-07-21T02:51:34.139Z,299.30
2018-07-21T02:52:34.182Z,294.90
2018-07-21T02:53:34.226Z,298.50
2018-07-21T02:54:34.262Z,305.70
2018-07-21T02:55:34.338Z,288.00
2018-07-21T02:56:34.345Z,298.90
2018-07-21T02:57:34.413Z,305.60
2018-07-21T02:58:34.463Z,297.30
2018-07-21T02:59:34.471Z,294.40
2018-07-21T03:00:34.524Z,281.50
2018-07-21T03:01:34.605Z,295.90
2018-07-21T03:02:34.640Z,314.20
2018-07-21T03:03:34.668Z,299.30
2018-07-21T03:04:34.740Z,306.20
2018-07-21T03:05:34.799Z,316.80
2018-07-21T03:06:34.792Z,294.20
2018-07-21T03:07:34.884Z,295.40
2018-07-21T03:08:34.916Z,304.10
2018-07-21T03:09:34.976Z,289.50
2018-07-21T03:10:35.019Z,293.70
2018-07-21T03:11:35.034Z,283.00
2018-07-21T03:12:35.097Z,289.00
2018-07-21T03:13:35.136Z,283.90
2018-07-21T03:14:35.179Z,288.80
2018-07-21T03:15:35.237Z,296.00
2018-07-21T03:16:35.307Z,276.90
2018-07-21T03:17:35.339Z,284.10
2018-07-21T03:18:35.371Z,280.40
2018-07-21T03:19:35.443Z,297.90
2018-07-21T03:20:35.462Z,287.80
2018-07-21T03:21:35.513Z,298.00
2018-07-21T03:22:35.554Z,309.30
2018-07-21T03:23:35.798Z,284.70
2018-07-21T03:24:35.672Z,290.90
2018-07-21T03:25:35.703Z,303.80
2018-07-21T03:26:35.740Z,290.30
2018-07-21T03:27:35.788Z,289.30
2018-07-21T03:28:35.838Z,285.70
2018-07-21T03:29:35.888Z,305.10
2018-07-21T03:30:35.919Z,315.00
2018-07-21T03:31:35.963Z,293.20
2018-07-21T03:32:36.027Z,315.20
2018-07-21T03:33:36.041Z,326.80
2018-07-21T03:34:36.306Z,318.40
2018-07-21T03:35:36.154Z,331.40
2018-07-21T03:36:36.187Z,327.50
2018-07-21T03:37:36.254Z,350.70
2018-07-21T03:38:36.292Z,346.10
2018-07-21T03:39:36.322Z,356.50
2018-07-21T03:40:36.438Z,338.20
2018-07-21T03:41:36.419Z,349.80
2018-07-21T03:42:36.471Z,344.30
2018-07-21T03:43:36.492Z,344.50
2018-07-21T03:44:36.548Z,352.40
2018-07-21T03:45:36.616Z,350.60
2018-07-21T03:46:36.654Z,351.40
2018-07-21T03:47:36.708Z,345.60
2018-07-21T03:48:36.734Z,342.90
2018-07-21T03:49:36.802Z,345.20
2018-07-21T03:50:36.839Z,344.20
2018-07-21T03:51:36.873Z,336.70
2018-07-21T03:52:36.923Z,348.50
2018-07-21T03:53:36.951Z,328.10
2018-07-21T03:54:36.996Z,350.10
2018-07-21T03:55:37.043Z,321.20
2018-07-21T03:56:37.075Z,323.00
2018-07-21T03:57:37.344Z,328.00
2018-07-21T03:58:37.182Z,339.20
2018-07-21T03:59:37.217Z,325.70
2018-07-21T04:00:37.322Z,334.60
2018-07-21T04:01:37.330Z,344.20
2018-07-21T04:02:37.343Z,319.70
2018-07-21T04:03:37.411Z,346.00
2018-07-21T04:04:37.447Z,320.50
2018-07-21T04:05:37.507Z,340.30
2018-07-21T04:06:37.555Z,325.50
2018-07-21T04:07:37.590Z,314.50
2018-07-21T04:08:37.655Z,327.70
2018-07-21T04:09:37.711Z,315.70
2018-07-21T04:10:37.728Z,310.20
2018-07-21T04:11:37.780Z,328.30
2018-07-21T04:12:37.836Z,327.30
2018-07-21T04:13:37.851Z,322.10
2018-07-21T04:14:37.920Z,312.70
2018-07-21T04:15:37.973Z,317.30
2018-07-21T04:16:37.998Z,331.50
2018-07-21T04:17:38.029Z,326.80
2018-07-21T04:18:38.093Z,315.40
2018-07-21T04:19:38.341Z,322.50
2018-07-21T04:20:38.182Z,333.10
2018-07-21T04:21:38.242Z,324.40
2018-07-21T04:22:38.267Z,339.20
2018-07-21T04:23:38.335Z,323.30
2018-07-21T04:24:38.364Z,338.90
2018-07-21T04:25:38.401Z,329.30
2018-07-21T04:26:38.446Z,318.80
2018-07-21T04:27:38.497Z,324.70
2018-07-21T04:28:38.564Z,323.60
2018-07-21T04:29:38.588Z,319.50
2018-07-21T04:30:38.649Z,316.10
2018-07-21T04:31:38.692Z,321.00
2018-07-21T04:32:38.755Z,314.80
2018-07-21T04:33:38.774Z,330.20
2018-07-21T04:34:38.815Z,323.40
2018-07-21T04:35:38.871Z,321.10
2018-07-21T04:36:38.901Z,319.50
2018-07-21T04:37:38.939Z,311.70
2018-07-21T04:38:38.978Z,309.40
2018-07-21T04:39:39.056Z,312.10
2018-07-21T04:40:39.081Z,309.50
2018-07-21T04:41:39.128Z,298.70
2018-07-21T04:42:39.172Z,294.30
2018-07-21T04:43:39.223Z,307.00
2018-07-21T04:44:39.269Z,316.90
2018-07-21T04:45:39.290Z,317.10
2018-07-21T04:46:39.378Z,294.30
2018-07-21T04:47:39.404Z,308.20
2018-07-21T04:48:39.451Z,299.00
2018-07-21T04:49:39.506Z,304.70
2018-07-21T04:50:39.530Z,307.10
2018-07-21T04:51:39.568Z,302.00
2018-07-21T04:52:39.840Z,286.30
2018-07-21T04:53:39.692Z,269.70
2018-07-21T04:54:39.721Z,258.80
2018-07-21T04:55:39.754Z,277.10
2018-07-21T04:56:39.791Z,267.10
2018-07-21T04:57:39.858Z,265.30
2018-07-21T04:58:39.878Z,262.40
2018-07-21T04:59:39.932Z,269.60
2018-07-21T05:00:40.034Z,275.90
2018-07-21T05:01:40.050Z,302.20
2018-07-21T05:02:40.070Z,307.50
2018-07-21T05:03:40.144Z,326.50
2018-07-21T05:04:40.377Z,311.00
2018-07-21T05:05:40.236Z,298.60
2018-07-21T05:06:40.236Z,331.40
2018-07-21T05:07:40.306Z,298.40
2018-07-21T05:08:40.334Z,280.80
2018-07-21T05:09:40.402Z,258.90
2018-07-21T05:10:40.441Z,269.80
2018-07-21T05:11:40.485Z,269.00
2018-07-21T05:12:40.529Z,265.90
2018-07-21T05:13:40.571Z,265.00
2018-07-21T05:14:40.611Z,292.70
2018-07-21T05:15:40.656Z,283.60
2018-07-21T05:16:40.701Z,286.50
2018-07-21T05:17:40.754Z,301.50
2018-07-21T05:18:40.818Z,340.10
2018-07-21T05:19:40.827Z,364.60
2018-07-21T05:20:40.879Z,376.10
2018-07-21T05:21:40.907Z,355.50
2018-07-21T05:22:41.024Z,354.30
2018-07-21T05:23:41.029Z,352.40
2018-07-21T05:24:41.064Z,333.40
2018-07-21T05:25:41.124Z,334.30
2018-07-21T05:26:41.134Z,340.80
2018-07-21T05:27:41.206Z,331.60
2018-07-21T05:28:41.474Z,336.90
2018-07-21T05:29:41.304Z,317.80
2018-07-21T05:30:41.338Z,319.30
2018-07-21T05:31:41.399Z,325.40
2018-07-21T05:32:41.428Z,311.20
2018-07-21T05:33:41.460Z,299.50
2018-07-21T05:34:41.504Z,297.90
2018-07-21T05:35:41.553Z,292.10
2018-07-21T05:36:41.626Z,293.00
2018-07-21T05:37:41.650Z,260.80
2018-07-21T05:38:41.690Z,250.60
2018-07-21T05:39:41.995Z,243.60
2018-07-21T05:40:41.796Z,240.00
2018-07-21T05:41:41.822Z,221.70
2018-07-21T05:42:41.939Z,227.00
2018-07-21T05:43:41.925Z,230.90
2018-07-21T05:44:41.964Z,233.20
2018-07-21T05:45:42.005Z,241.80
2018-07-21T05:46:42.057Z,234.40
2018-07-21T05:47:42.125Z,235.20
2018-07-21T05:48:42.170Z,238.60
2018-07-21T05:49:42.191Z,253.50
2018-07-21T05:50:42.222Z,284.40
2018-07-21T05:51:42.521Z,236.30
2018-07-21T05:52:42.308Z,238.80
2018-07-21T05:53:42.369Z,240.30
2018-07-21T05:54:42.440Z,242.30
2018-07-21T05:55:42.464Z,218.10
2018-07-21T05:56:42.523Z,184.10
2018-07-21T05:57:42.564Z,225.20
2018-07-21T05:58:42.599Z,193.80
2018-07-21T05:59:42.644Z,214.60
2018-07-21T06:00:42.686Z,219.60
2018-07-21T06:01:42.726Z,206.60
2018-07-21T06:02:42.833Z,216.20
2018-07-21T06:03:43.074Z,234.00
2018-07-21T06:04:42.851Z,180.10
2018-07-21T06:05:42.900Z,194.50
2018-07-21T06:06:42.939Z,163.50
2018-07-21T06:07:43.007Z,156.20
2018-07-21T06:08:43.072Z,156.90
2018-07-21T06:09:43.057Z,163.50
2018-07-21T06:10:43.119Z,180.20
2018-07-21T06:11:43.190Z,179.10
2018-07-21T06:12:43.224Z,161.60
2018-07-21T06:13:43.249Z,178.70
2018-07-21T06:14:43.496Z,163.50
2018-07-21T06:15:43.333Z,169.40
2018-07-21T06:16:43.387Z,166.60
2018-07-21T06:17:43.440Z,164.10
2018-07-21T06:18:43.490Z,163.60
2018-07-21T06:19:43.538Z,164.30
2018-07-21T06:20:43.572Z,162.50
2018-07-21T06:21:43.650Z,165.50
2018-07-21T06:22:43.645Z,162.20
2018-07-21T06:23:43.734Z,168.50
2018-07-21T06:24:43.763Z,160.50
2018-07-21T06:25:43.990Z,166.20
2018-07-21T06:26:43.846Z,161.40
2018-07-21T06:27:43.866Z,153.80
2018-07-21T06:28:43.936Z,161.50
2018-07-21T06:29:43.950Z,153.70
2018-07-21T06:30:44.008Z,160.30
2018-07-21T06:31:44.059Z,168.60
2018-07-21T06:32:44.103Z,157.30
2018-07-21T06:33:44.147Z,157.40
2018-07-21T06:34:44.186Z,172.90
2018-07-21T06:35:44.229Z,148.10
2018-07-21T06:36:44.264Z,158.10
2018-07-21T06:37:44.533Z,156.90
2018-07-21T06:38:44.348Z,171.90
2018-07-21T06:39:44.386Z,164.50
2018-07-21T06:40:44.434Z,150.90
2018-07-21T06:41:44.475Z,177.70
2018-07-21T06:42:44.526Z,183.00
2018-07-21T06:43:44.618Z,178.50
2018-07-21T06:44:44.630Z,175.20
2018-07-21T06:45:44.662Z,182.50
2018-07-21T06:46:44.716Z,185.10
2018-07-21T06:47:44.747Z,176.50
2018-07-21T06:48:44.826Z,180.20
2018-07-21T06:49:44.858Z,175.30
2018-07-21T06:50:44.898Z,186.40
2018-07-21T06:51:44.953Z,177.80
2018-07-21T06:52:45.194Z,177.80
2018-07-21T06:53:45.040Z,183.20
2018-07-21T06:54:45.072Z,175.90
2018-07-21T06:55:45.126Z,173.20
2018-07-21T06:56:45.149Z,185.40
2018-07-21T06:57:45.212Z,176.50
2018-07-21T06:58:45.251Z,179.90
2018-07-21T06:59:45.295Z,185.30
2018-07-21T07:00:45.324Z,188.40
2018-07-21T07:01:45.391Z,190.70
2018-07-21T07:02:45.436Z,177.20
2018-07-21T07:03:45.479Z,179.60
2018-07-21T07:04:45.763Z,166.40
2018-07-21T07:05:45.579Z,171.60
2018-07-21T07:06:45.595Z,159.90
2018-07-21T07:07:45.653Z,134.90
2018-07-21T07:08:45.690Z,168.00
2018-07-21T07:09:45.755Z,179.00
2018-07-21T07:10:45.768Z,176.50
2018-07-21T07:11:45.840Z,172.40
2018-07-21T07:12:45.921Z,171.20
2018-07-21T07:13:45.902Z,163.50
2018-07-21T07:14:45.970Z,170.50
2018-07-21T07:15:45.984Z,174.90
2018-07-21T07:16:46.064Z,161.00
2018-07-21T07:17:46.097Z,172.60
2018-07-21T07:18:46.179Z,171.20
2018-07-21T07:19:46.227Z,172.10
2018-07-21T07:20:46.243Z,163.80
2018-07-21T07:21:46.263Z,167.60
2018-07-21T07:22:46.299Z,179.00
2018-07-21T07:23:46.397Z,167.30
2018-07-21T07:24:46.400Z,176.30
2018-07-21T07:25:46.448Z,165.30
2018-07-21T07:26:46.483Z,169.50
2018-07-21T07:27:46.520Z,176.00
2018-07-21T07:28:46.788Z,175.00
2018-07-21T07:29:46.617Z,176.80
2018-07-21T07:30:46.673Z,162.80
2018-07-21T07:31:46.692Z,167.40
2018-07-21T07:32:46.752Z,172.10
2018-07-21T07:33:46.793Z,175.80
2018-07-21T07:34:46.852Z,167.90
2018-07-21T07:35:46.876Z,166.50
2018-07-21T07:36:46.937Z,165.10
2018-07-21T07:37:46.970Z,174.60
2018-07-21T07:38:47.025Z,165.50
2018-07-21T07:39:47.235Z,168.30
2018-07-21T07:40:47.104Z,159.40
2018-07-21T07:41:47.146Z,172.00
2018-07-21T07:42:47.202Z,178.60
2018-07-21T07:43:47.272Z,174.70
2018-07-21T07:44:47.312Z,173.50
2018-07-21T07:45:47.326Z,176.90
2018-07-21T07:46:47.362Z,176.50
2018-07-21T07:47:47.399Z,173.90
2018-07-21T07:48:47.467Z,170.30
2018-07-21T07:49:47.489Z,164.70
2018-07-21T07:50:47.534Z,167.80
2018-07-21T07:51:47.789Z,168.10
2018-07-21T07:52:47.627Z,171.00
2018-07-21T07:53:47.674Z,174.20
2018-07-21T07:54:47.729Z,162.70
2018-07-21T07:55:47.765Z,163.60
2018-07-21T07:56:47.830Z,171.40
2018-07-21T07:57:47.843Z,175.60
2018-07-21T07:58:47.881Z,173.10
2018-07-21T07:59:47.937Z,175.90
2018-07-21T08:00:47.965Z,163.30
2018-07-21T08:01:48.033Z,170.50
2018-07-21T08:02:48.057Z,170.10
2018-07-21T08:03:48.342Z,173.10
2018-07-21T08:04:48.169Z,170.60
2018-07-21T08:05:48.215Z,172.00
2018-07-21T08:06:48.245Z,165.20
2018-07-21T08:07:48.316Z,178.00
2018-07-21T08:08:48.339Z,160.90
2018-07-21T08:09:48.397Z,168.90
2018-07-21T08:10:48.437Z,181.60
2018-07-21T08:11:48.519Z,169.20
2018-07-21T08:12:48.512Z,164.50
2018-07-21T08:13:48.547Z,160.10
2018-07-21T08:14:48.607Z,154.30
2018-07-21T08:15:48.638Z,154.10
2018-07-21T08:16:48.688Z,155.70
2018-07-21T08:17:48.731Z,147.90
2018-07-21T08:18:48.774Z,147.70
2018-07-21T08:19:49.047Z,155.40
2018-07-21T08:20:48.852Z,150.60
2018-07-21T08:21:48.914Z,157.40
2018-07-21T08:22:48.977Z,151.60
2018-07-21T08:23:48.978Z,166.60
2018-07-21T08:24:49.030Z,174.40
2018-07-21T08:25:49.068Z,185.20
2018-07-21T08:26:49.133Z,183.10
2018-07-21T08:27:49.177Z,179.60
2018-07-21T08:28:49.204Z,199.20
2018-07-21T08:29:49.264Z,194.90
2018-07-21T08:30:49.297Z,191.20
2018-07-21T08:31:49.314Z,204.60
2018-07-21T08:32:49.615Z,195.80
2018-07-21T08:33:49.446Z,189.30
2018-07-21T08:34:49.475Z,186.70
2018-07-21T08:35:49.524Z,203.30
2018-07-21T08:36:49.589Z,202.90
2018-07-21T08:37:49.596Z,211.50
2018-07-21T08:38:49.682Z,208.60
2018-07-21T08:39:49.713Z,216.00
2018-07-21T08:40:49.719Z,213.20
2018-07-21T08:41:49.774Z,236.40
2018-07-21T08:42:49.834Z,233.60
2018-07-21T08:43:49.869Z,217.70
2018-07-21T08:44:49.919Z,234.80
2018-07-21T08:45:49.969Z,232.00
2018-07-21T08:46:50.007Z,234.80
2018-07-21T08:47:50.272Z,253.10
2018-07-21T08:48:50.111Z,266.20
2018-07-21T08:49:50.126Z,264.40
2018-07-21T08:50:50.183Z,287.60
2018-07-21T08:51:50.225Z,296.20
2018-07-21T08:52:50.310Z,274.20
2018-07-21T08:53:50.322Z,299.00
2018-07-21T08:54:50.347Z,312.70
2018-07-21T08:55:50.493Z,296.40
2018-07-21T08:56:50.455Z,317.40
2018-07-21T08:57:50.499Z,331.60
2018-07-21T08:58:50.539Z,322.40
2018-07-21T08:59:50.816Z,330.30
2018-07-21T09:00:50.634Z,332.80
2018-07-21T09:01:50.659Z,333.20
2018-07-21T09:02:50.725Z,350.90
2018-07-21T09:03:50.754Z,334.50
2018-07-21T09:04:50.771Z,360.80
2018-07-21T09:05:50.903Z,329.90
2018-07-21T09:06:50.877Z,353.50
2018-07-21T09:07:50.919Z,339.80
2018-07-21T09:08:50.970Z,356.60
2018-07-21T09:09:50.976Z,357.90
2018-07-21T09:10:51.313Z,342.60
2018-07-21T09:11:51.105Z,342.60
2018-07-21T09:12:51.142Z,334.40
2018-07-21T09:13:51.165Z,334.70
2018-07-21T09:14:51.223Z,315.20
2018-07-21T09:15:51.269Z,330.30
2018-07-21T09:16:51.330Z,303.10
2018-07-21T09:17:51.360Z,320.50
2018-07-21T09:18:51.378Z,324.80
2018-07-21T09:19:51.449Z,307.60
2018-07-21T09:20:51.502Z,310.60
2018-07-21T09:21:51.522Z,304.50
2018-07-21T09:22:51.579Z,315.70
2018-07-21T09:23:51.663Z,302.40
2018-07-21T09:24:51.631Z,291.50
2018-07-21T09:25:51.721Z,289.50
2018-07-21T09:26:51.953Z,295.20
2018-07-21T09:27:51.800Z,274.30
2018-07-21T09:28:51.812Z,284.00
2018-07-21T09:29:51.890Z,284.20
2018-07-21T09:30:51.912Z,270.30
2018-07-21T09:31:51.954Z,278.60
2018-07-21T09:32:52.007Z,280.70
2018-07-21T09:33:52.103Z,263.60
2018-07-21T09:34:52.098Z,263.60
2018-07-21T09:35:52.125Z,264.90
2018-07-21T09:36:52.198Z,272.80
2018-07-21T09:37:52.204Z,243.80
2018-07-21T09:38:52.282Z,265.60
2018-07-21T09:39:52.314Z,264.60
2018-07-21T09:40:52.361Z,256.20
2018-07-21T09:41:52.402Z,245.40
2018-07-21T09:42:52.474Z,252.70
2018-07-21T09:43:52.462Z,252.60
2018-07-21T09:44:52.535Z,271.50
2018-07-21T09:45:52.555Z,248.00
2018-07-21T09:46:52.600Z,238.70
2018-07-21T09:47:52.661Z,257.70
2018-07-21T09:48:52.696Z,231.20
2018-07-21T09:49:52.943Z,219.10
2018-07-21T09:50:52.804Z,227.40
2018-07-21T09:51:52.821Z,242.50
2018-07-21T09:52:52.875Z,259.90
2018-07-21T09:53:52.917Z,230.10
2018-07-21T09:54:52.941Z,226.00
2018-07-21T09:55:53.063Z,220.60
2018-07-21T09:56:53.044Z,214.40
2018-07-21T09:57:53.095Z,221.00
2018-07-21T09:58:53.148Z,222.60
2018-07-21T09:59:53.172Z,215.10
2018-07-21T10:00:53.445Z,214.80
2018-07-21T10:01:53.267Z,188.70
2018-07-21T10:02:53.316Z,173.50
2018-07-21T10:03:53.350Z,161.20
2018-07-21T10:04:53.456Z,142.90
2018-07-21T10:05:53.426Z,143.20
2018-07-21T10:06:53.496Z,159.90
2018-07-21T10:07:53.541Z,155.60
2018-07-21T10:08:53.569Z,127.30
2018-07-21T10:09:53.599Z,131.10
2018-07-21T10:10:53.676Z,113.00
2018-07-21T10:11:53.692Z,121.10
2018-07-21T10:12:53.764Z,105.50
2018-07-21T10:13:53.812Z,133.10
2018-07-21T10:14:53.836Z,142.90
2018-07-21T10:15:53.886Z,141.50
2018-07-21T10:16:53.937Z,129.70
2018-07-21T10:17:53.945Z,110.10
2018-07-21T10:18:54.261Z,112.40
2018-07-21T10:19:54.048Z,109.10
2018-07-21T10:20:54.112Z,114.30
2018-07-21T10:21:54.202Z,113.40
2018-07-21T10:22:54.183Z,119.80
2018-07-21T10:23:54.218Z,122.50
2018-07-21T10:24:54.279Z,119.80
2018-07-21T10:25:54.314Z,137.80
2018-07-21T10:26:54.346Z,136.10
2018-07-21T10:27:54.390Z,119.20
2018-07-21T10:28:54.508Z,116.40
2018-07-21T10:29:54.676Z,123.10
2018-07-21T10:30:54.540Z,129.70
2018-07-21T10:31:54.588Z,127.20
2018-07-21T10:32:54.635Z,132.10
2018-07-21T10:33:54.707Z,140.60
2018-07-21T10:34:54.735Z,132.10
2018-07-21T10:35:54.779Z,145.50
2018-07-21T10:36:54.855Z,149.70
2018-07-21T10:37:54.844Z,165.50
2018-07-21T10:38:54.887Z,152.10
2018-07-21T10:39:54.947Z,153.10
2018-07-21T10:40:55.006Z,142.30
2018-07-21T10:41:55.032Z,145.30
2018-07-21T10:42:55.076Z,139.20
2018-07-21T10:43:55.181Z,119.60
2018-07-21T10:44:55.165Z,105.10
2018-07-21T10:45:55.265Z,111.50
2018-07-21T10:46:55.278Z,124.90
2018-07-21T10:47:55.348Z,110.50
2018-07-21T10:48:55.332Z,75.00
2018-07-21T10:49:55.378Z,70.80
2018-07-21T10:50:55.451Z,94.70
2018-07-21T10:51:55.511Z,85.00
2018-07-21T10:52:55.537Z,88.40
2018-07-21T10:53:55.601Z,84.60
2018-07-21T10:54:55.646Z,77.00
2018-07-21T10:55:55.692Z,75.40
2018-07-21T10:56:55.901Z,75.30
2018-07-21T10:57:55.789Z,92.20
2018-07-21T10:58:55.835Z,82.20
2018-07-21T10:59:55.883Z,83.00
2018-07-21T11:00:55.897Z,85.60
2018-07-21T11:01:55.987Z,85.90
2018-07-21T11:02:56.056Z,97.60
2018-07-21T11:03:56.041Z,87.90
2018-07-21T11:04:56.118Z,82.40
2018-07-21T11:05:56.170Z,81.50
2018-07-21T11:06:56.188Z,77.00
2018-07-21T11:07:56.248Z,72.30
2018-07-21T11:08:56.290Z,66.80
2018-07-21T11:09:56.357Z,65.90
2018-07-21T11:10:56.387Z,67.40
2018-07-21T11:11:56.471Z,62.30
2018-07-21T11:12:56.530Z,56.40
2018-07-21T11:13:56.596Z,60.50
2018-07-21T11:14:56.581Z,62.80
2018-07-21T11:15:56.665Z,56.20
2018-07-21T11:16:56.692Z,52.60
2018-07-21T11:17:56.743Z,49.40
2018-07-21T11:18:56.800Z,50.00
2018-07-21T11:19:56.849Z,46.60
2018-07-21T11:20:56.916Z,50.60
2018-07-21T11:21:56.974Z,48.90
2018-07-21T11:22:56.979Z,49.10
2018-07-21T11:23:57.044Z,47.30
2018-07-21T11:24:57.089Z,47.20
2018-07-21T11:25:57.148Z,47.10
2018-07-21T11:26:57.186Z,50.00
2018-07-21T11:27:57.217Z,48.20
2018-07-21T11:28:57.301Z,47.50
2018-07-21T11:29:57.383Z,46.90
2018-07-21T11:30:57.377Z,48.50
2018-07-21T11:31:57.462Z,46.70
2018-07-21T11:32:57.535Z,54.50
2018-07-21T11:33:57.573Z,51.00
2018-07-21T11:34:57.624Z,50.20
2018-07-21T11:35:57.938Z,49.10
2018-07-21T11:36:57.696Z,53.90
2018-07-21T11:37:57.762Z,49.70
2018-07-21T11:38:57.809Z,52.40
2018-07-21T11:39:57.850Z,54.10
2018-07-21T11:40:57.907Z,48.80
2018-07-21T11:41:57.985Z,49.80
2018-07-21T11:42:57.997Z,48.70
2018-07-21T11:43:58.049Z,48.40
2018-07-21T11:44:58.116Z,47.20
2018-07-21T11:45:58.188Z,47.80
2018-07-21T11:46:58.466Z,51.10
2018-07-21T11:47:58.232Z,47.80
2018-07-21T11:48:58.311Z,48.50
2018-07-21T11:49:58.368Z,48.10
2018-07-21T11:50:58.430Z,46.30
2018-07-21T11:51:58.472Z,52.40
2018-07-21T11:52:58.495Z,48.10
2018-07-21T11:53:58.579Z,77.00
2018-07-21T11:54:58.631Z,69.60
2018-07-21T11:55:58.653Z,66.20
2018-07-21T11:56:58.766Z,74.30
2018-07-21T11:57:58.797Z,75.20
2018-07-21T11:58:58.853Z,75.10
2018-07-21T11:59:58.909Z,76.80
2018-07-21T12:00:58.944Z,88.20
2018-07-21T12:01:59.064Z,93.60
2018-07-21T12:02:59.043Z,93.80
2018-07-21T12:03:59.074Z,105.00
2018-07-21T12:04:59.121Z,102.50
2018-07-21T12:05:59.197Z,110.10
2018-07-21T12:06:59.292Z,120.30
2018-07-21T12:07:59.282Z,128.90
2018-07-21T12:08:59.367Z,114.10
2018-07-21T12:09:59.411Z,132.60
2018-07-21T12:10:59.450Z,141.70
2018-07-21T12:11:59.501Z,137.60
2018-07-21T12:12:59.580Z,140.80
2018-07-21T12:13:59.610Z,151.80
2018-07-21T12:14:59.672Z,149.80
2018-07-21T12:15:59.722Z,165.40
2018-07-21T12:16:59.780Z,177.70
2018-07-21T12:17:59.801Z,162.20
2018-07-21T12:18:59.901Z,153.40
2018-07-21T12:19:59.913Z,168.80
2018-07-21T12:20:59.981Z,173.60
2018-07-21T12:22:00.038Z,183.40
2018-07-21T12:23:00.109Z,166.40
2018-07-21T12:24:00.153Z,168.70
2018-07-21T12:25:00.190Z,149.90
2018-07-21T12:26:00.277Z,169.00
2018-07-21T12:27:00.310Z,163.10
2018-07-21T12:28:00.391Z,149.90
2018-07-21T12:29:00.409Z,143.80
2018-07-21T12:30:00.463Z,117.80
2018-07-21T12:31:00.536Z,118.10